Flight Track Log - Related Links

Times and Time Zones

All times are in EDT time to prevent confusion due to time zone crossing. See the UAL1423 flight status page for this flight to view local times or setup timezone preferences in your user account.

Time Position Orientation Groundspeed Altitude Reporting Facility
EDT Latitude Longitude Course Direction KTS MPH feet Rate Location/Type
Fri 03:45:54 PM 29.9591 -95.3418 171° South 159 183 900  Level FlightAware ADS-B
Fri 03:45:59 PM 29.9550 -95.3422 187° South 164 189 1,100 2,000 Climbing FlightAware ADS-B
Fri 03:46:03 PM 29.9519 -95.3433 201° Southwest 171 197 1,200 1,200 Climbing FlightAware ADS-B
Fri 03:46:09 PM 29.9477 -95.3461 214° Southwest 183 211 1,300 1,200 Climbing FlightAware ADS-B
Fri 03:46:13 PM 29.9447 -95.3493 225° Southwest 193 222 1,400 2,000 Climbing FlightAware ADS-B
Fri 03:46:18 PM 29.9421 -95.3536 237° Southwest 204 235 1,600 2,400 Climbing FlightAware ADS-B
Fri 03:46:23 PM 29.9401 -95.3588 249° West 213 245 1,800 2,182 Climbing FlightAware ADS-B
Fri 03:46:29 PM 29.9389 -95.3650 259° West 221 254 2,000 2,400 Climbing FlightAware ADS-B
Fri 03:46:33 PM 29.9388 -95.3703 269° West 228 262 2,200 3,333 Climbing FlightAware ADS-B
Fri 03:46:38 PM 29.9396 -95.3766 281° West 231 266 2,500 3,600 Climbing FlightAware ADS-B
Fri 03:46:43 PM 29.9414 -95.3826 292° West 235 270 2,800 3,231 Climbing FlightAware ADS-B
Fri 03:46:51 PM 29.9452 -95.3900 306° West 240 276 3,200 3,000 Climbing FlightAware ADS-B
Fri 03:46:55 PM 29.9491 -95.3950 314° West 245 282 3,400 2,571 Climbing FlightAware ADS-B
Fri 03:46:58 PM 29.9520 -95.3979 320° Northwest 250 288 3,500 2,250 Climbing FlightAware ADS-B
Fri 03:47:03 PM 29.9571 -95.4018 329° Northwest 256 295 3,700 1,636 Climbing FlightAware ADS-B
Fri 03:47:09 PM 29.9627 -95.4048 335° Northwest 262 302 3,800 1,200 Climbing FlightAware ADS-B
Fri 03:47:13 PM 29.9683 -95.4068 345° North 269 310 3,900 400 Climbing FlightAware ADS-B
Fri 03:47:24 PM 29.9806 -95.4084 359° North 276 318 3,900  Level FlightAware ADS-B
Fri 03:47:35 PM 29.9958 -95.4053 18° North 283 326 3,900  Level FlightAware ADS-B
Fri 03:47:39 PM 29.9999 -95.4034 22° Northeast 284 327 3,900  Level FlightAware ADS-B
Fri 03:47:43 PM 30.0053 -95.3999 30° Northeast 283 326 3,900  Level FlightAware ADS-B
Fri 03:47:49 PM 30.0111 -95.3949 37° Northeast 281 323 3,900  Level FlightAware ADS-B
Fri 03:47:53 PM 30.0154 -95.3903 44° Northeast 280 322 3,900  Level FlightAware ADS-B
Fri 03:48:09 PM 30.0285 -95.3732 50° Northeast 281 323 3,900 1,636 Level FlightAware ADS-B
Fri 03:48:48 PM 30.0647 -95.3337 38° Northeast 286 329 5,400 2,333 Climbing FlightAware ADS-B
Fri 03:49:03 PM 30.0822 -95.3178 38° Northeast 299 344 6,000 3,097 Climbing FlightAware ADS-B
Fri 03:49:19 PM 30.0989 -95.3031 37° Northeast 303 349 7,000 3,900 Climbing FlightAware ADS-B
Fri 03:49:23 PM 30.1046 -95.2979 37° Northeast 301 346 7,300 3,818 Climbing FlightAware ADS-B
Fri 03:49:41 PM 30.1190 -95.2850 37° Northeast 300 345 8,400 3,462 Climbing FlightAware ADS-B
Fri 03:49:49 PM 30.1320 -95.2734 37° Northeast 304 350 8,800 3,333 Climbing FlightAware ADS-B
Fri 03:49:59 PM 30.1431 -95.2634 38° Northeast 304 350 9,400 3,385 Climbing FlightAware ADS-B
Fri 03:50:28 PM 30.1768 -95.2331 38° Northeast 319 367 11,000 2,644 Climbing FlightAware ADS-B
Fri 03:50:58 PM 30.2141 -95.1995 38° Northeast 351 404 12,000 2,656 Climbing FlightAware ADS-B
Fri 03:51:29 PM 30.2518 -95.1653 38° Northeast 355 409 13,700 3,300 Climbing FlightAware ADS-B
Fri 03:51:58 PM 30.2915 -95.1292 38° Northeast 363 418 15,300 2,339 Climbing FlightAware ADS-B
Fri 03:52:28 PM 30.3322 -95.0923 38° Northeast 375 432 16,000 590 Climbing FlightAware ADS-B
Fri 03:52:59 PM 30.3733 -95.0553 37° Northeast 374 430 15,900 -98 Descending FlightAware ADS-B
Fri 03:53:29 PM 30.4141 -95.0184 38° Northeast 372 428 15,900  Level FlightAware ADS-B
Fri 03:53:59 PM 30.4541 -94.9820 38° Northeast 370 426 15,900 76 Level FlightAware ADS-B
Fri 03:54:48 PM 30.5217 -94.9206 38° Northeast 373 429 16,000 769 Climbing FlightAware ADS-B
Fri 03:55:17 PM 30.5599 -94.8868 34° Northeast 374 430 16,900 2,400 Climbing FlightAware ADS-B
Fri 03:55:48 PM 30.6066 -94.8509 33° Northeast 382 440 18,400 2,754 Climbing FlightAware ADS-B
Fri 03:56:18 PM 30.6495 -94.8179 33° Northeast 392 451 19,700 2,459 Climbing FlightAware ADS-B
Fri 03:56:49 PM 30.6969 -94.7815 33° Northeast 401 461 20,900 2,500 Climbing FlightAware ADS-B
Fri 03:57:18 PM 30.7441 -94.7452 33° Northeast 404 465 22,200 2,339 Climbing FlightAware ADS-B
Fri 03:57:48 PM 30.7912 -94.7089 33° Northeast 413 475 23,200 1,967 Climbing FlightAware ADS-B
Fri 03:58:19 PM 30.8389 -94.6722 33° Northeast 424 488 24,200 1,900 Climbing FlightAware ADS-B
Fri 03:58:48 PM 30.8876 -94.6345 33° Northeast 433 498 25,100 1,831 Climbing FlightAware ADS-B
Fri 03:59:18 PM 30.9373 -94.5960 33° Northeast 440 506 26,000 1,770 Climbing FlightAware ADS-B
Fri 03:59:49 PM 30.9902 -94.5550 33° Northeast 448 516 26,900 1,600 Climbing FlightAware ADS-B
Fri 04:00:18 PM 31.0384 -94.5176 33° Northeast 454 522 27,600 1,627 Climbing FlightAware ADS-B
Fri 04:00:48 PM 31.0958 -94.4731 33° Northeast 462 532 28,500 1,672 Climbing FlightAware ADS-B
Fri 04:01:19 PM 31.1498 -94.4311 33° Northeast 467 537 29,300 1,600 Climbing FlightAware ADS-B
Fri 04:01:48 PM 31.2030 -94.3896 33° Northeast 473 544 30,100 1,424 Climbing FlightAware ADS-B
Fri 04:02:18 PM 31.2559 -94.3483 33° Northeast 480 552 30,700 1,300 Climbing FlightAware ADS-B
Fri 04:02:48 PM 31.3131 -94.3037 33° Northeast 486 559 31,400 1,358 Climbing FlightAware ADS-B
Fri 04:03:11 PM 31.3547 -94.2711 33° Northeast 490 564 31,900 1,200 Climbing FlightAware ADS-B
Fri 04:03:48 PM 31.3926 -94.2415 33° Northeast 494 568 32,600 1,463 Climbing FlightAware ADS-B
Fri 04:04:33 PM 31.5129 -94.1469 35° Northeast 495 570 33,900 1,672 Climbing FlightAware ADS-B
Fri 04:04:49 PM 31.5403 -94.1211 40° Northeast 500 575 34,300 1,429 Climbing FlightAware ADS-B
Fri 04:04:54 PM 31.5349 -94.1266 42° Northeast 502 578 34,400 1,105 Climbing FlightAware ADS-B
Fri 04:05:27 PM 31.5940 -94.0559 51° Northeast 518 596 35,000 1,091 Climbing FlightAware ADS-B
Fri 04:05:38 PM 31.6126 -94.0285 52° Northeast 518 596 35,200 878 Climbing FlightAware ADS-B
Fri 04:06:08 PM 31.6530 -93.9687 51° Northeast 523 602 35,600 900 Climbing FlightAware ADS-B
Fri 04:06:18 PM 31.6745 -93.9370 52° Northeast 523 602 35,800 1,000 Climbing FlightAware ADS-B
Fri 04:06:44 PM 31.7173 -93.8736 51° Northeast 527 606 36,200 1,000 Climbing FlightAware ADS-B
Fri 04:06:48 PM 31.7229 -93.8654 52° Northeast 526 605 36,300 909 Climbing FlightAware ADS-B
Fri 04:07:17 PM 31.7599 -93.8104 51° Northeast 528 608 36,700 923 Climbing FlightAware ADS-B
Fri 04:07:27 PM 31.7738 -93.7897 52° Northeast 528 608 36,900 439 Climbing FlightAware ADS-B
Fri 04:07:58 PM 31.8295 -93.7068 52° Northeast 529 609 37,000 98 Climbing FlightAware ADS-B
Fri 04:08:28 PM 31.8751 -93.6388 52° Northeast 528 608 37,000  Level FlightAware ADS-B
Fri 04:08:36 PM 31.8540 -93.6703 51° Northeast 529 609 37,000  Level FlightAware ADS-B
Fri 04:09:07 PM 31.9313 -93.5550 52° Northeast 526 605 37,000  Level FlightAware ADS-B
Fri 04:09:57 PM 32.0081 -93.4408 52° Northeast 520 598 37,000  Level FlightAware ADS-B
Fri 04:10:47 PM 32.0818 -93.3304 52° Northeast 520 598 37,000 447 Level FlightAware ADS-B
Fri 04:11:31 PM 32.1468 -93.2323 52° Northeast 520 598 37,700 1,000 Climbing FlightAware ADS-B
Fri 04:12:05 PM 32.1981 -93.1546 52° Northeast 520 598 38,300 896 Climbing FlightAware ADS-B
Fri 04:12:38 PM 32.2442 -93.0850 52° Northeast 521 600 38,700 667 Climbing FlightAware ADS-B
Fri 04:13:08 PM 32.2910 -93.0144 52° Northeast 523 602 39,000 261 Climbing FlightAware ADS-B
Fri 04:13:47 PM 32.3487 -92.9270 52° Northeast 525 604 39,000  Level FlightAware ADS-B
Fri 04:14:38 PM 32.4253 -92.8108 52° Northeast 524 603 39,000  Level FlightAware ADS-B
Fri 04:15:08 PM 32.4685 -92.7456 52° Northeast 522 601 39,000  Level FlightAware ADS-B
Fri 04:15:45 PM 32.5248 -92.6600 52° Northeast 523 602 39,000  Level FlightAware ADS-B
Fri 04:16:49 PM 32.6067 -92.5353 52° Northeast 522 601 39,000  Level Memphis Center
Fri 04:17:51 PM 32.6950 -92.3989 52° Northeast 522 601 39,000  Level Memphis Center
Fri 04:18:53 PM 32.7831 -92.2631 52° Northeast 522 601 39,000  Level Memphis Center
Fri 04:19:55 PM 32.8881 -92.0986 53° Northeast 522 601 39,000  Level Memphis Center
Fri 04:20:57 PM 32.9639 -91.9819 52° Northeast 522 601 39,000  Level Memphis Center
Fri 04:21:59 PM 33.0706 -91.8169 52° Northeast 524 603 39,000  Level Memphis Center
Fri 04:23:01 PM 33.1581 -91.6797 53° Northeast 525 604 39,000  Level Memphis Center
Fri 04:24:03 PM 33.2464 -91.5425 52° Northeast 524 603 39,000  Level Memphis Center
Fri 04:25:05 PM 33.3344 -91.4050 53° Northeast 524 603 39,000  Level Memphis Center
Fri 04:26:08 PM 33.4197 -91.2683 53° Northeast 519 597 39,000  Level Memphis Center
Fri 04:27:10 PM 33.5239 -91.1017 53° Northeast 519 597 39,000  Level Memphis Center
Fri 04:28:12 PM 33.6108 -90.9639 53° Northeast 519 597 39,000  Level Memphis Center
Fri 04:29:14 PM 33.6975 -90.8247 53° Northeast 520 598 39,000  Level Memphis Center
Fri 04:31:18 PM 33.8736 -90.5419 53° Northeast 520 598 39,000  Level Memphis Center
Fri 04:32:20 PM 33.9611 -90.4019 53° Northeast 521 600 39,000  Level Memphis Center
Fri 04:33:22 PM 34.0639 -90.2333 54° Northeast 521 600 39,000  Level Memphis Center
Fri 04:34:24 PM 34.1508 -90.0933 53° Northeast 521 600 39,000  Level Memphis Center
Fri 04:35:26 PM 34.2356 -89.9525 54° Northeast 521 600 39,000  Level Memphis Center
Fri 04:36:29 PM 34.3206 -89.8125 54° Northeast 521 600 39,000  Level Memphis Center
Fri 04:37:31 PM 34.4044 -89.6728 54° Northeast 521 600 39,000  Level Memphis Center
Fri 04:38:33 PM 34.5050 -89.5064 54° Northeast 520 598 39,000  Level Memphis Center
Fri 04:39:35 PM 34.5869 -89.3672 54° Northeast 517 595 39,000  Level Memphis Center
Fri 04:44:01 PM 34.9684 -88.7291 54° Northeast 39,000  Level FlightAware ADS-B (KMDQ)
Fri 04:46:21 PM 35.1661 -88.3914 54° Northeast 521 600 39,000  Level FlightAware ADS-B (KMDQ)
Fri 04:46:57 PM 35.2039 -88.3268 55° Northeast 522 601 39,000  Level FlightAware ADS-B (KMDQ)
Fri 04:48:21 PM 35.3342 -88.1023 55° Northeast 519 597 39,000  Level FlightAware ADS-B (KMDQ)
Fri 04:48:59 PM 35.3820 -88.0193 55° Northeast 520 598 39,000  Level FlightAware ADS-B (KMDQ)
Fri 04:50:16 PM 35.4917 -87.8286 55° Northeast 521 600 39,000  Level FlightAware ADS-B (KMDQ)
Fri 04:50:58 PM 35.5437 -87.7378 55° Northeast 522 601 39,000  Level FlightAware ADS-B (KMDQ)
Fri 04:51:41 PM 35.6093 -87.6226 55° Northeast 521 600 39,000  Level FlightAware ADS-B (KMDQ)
Fri 04:52:22 PM 35.6585 -87.5362 55° Northeast 520 598 39,000  Level FlightAware ADS-B (KMDQ)
Fri 04:53:02 PM 35.7030 -87.4515 61° Northeast 529 609 39,000  Level FlightAware ADS-B (KMDQ)
Fri 04:53:55 PM 35.7575 -87.3047 66° East 535 616 39,000  Level FlightAware ADS-B (KMDQ)
Fri 04:55:18 PM 35.8216 -87.1264 66° East 531 611 39,000  Level FlightAware ADS-B (KMDQ)
Fri 04:55:59 PM 35.8928 -86.9282 66° East 530 610 39,000  Level FlightAware ADS-B (KMDQ)
Fri 04:56:43 PM 35.9338 -86.8136 66° East 531 611 39,000  Level FlightAware ADS-B (KMDQ)
Fri 04:57:42 PM 35.9942 -86.6434 67° East 532 612 39,000  Level FlightAware ADS-B (KMDQ)
Fri 04:58:20 PM 36.0297 -86.5430 67° East 531 611 39,000  Level FlightAware ADS-B (KMDQ)
Fri 04:59:01 PM 36.0715 -86.4246 67° East 531 611 39,000  Level FlightAware ADS-B (KMDQ)
Fri 04:59:57 PM 36.1064 -86.3255 67° East 530 610 39,000  Level FlightAware ADS-B (KMDQ)
Fri 05:05:04 PM 36.4129 -85.4393 67° East 523 602 39,000  Level FlightAware ADS-B
Fri 05:06:17 PM 36.4898 -85.2131 67° East 522 601 39,000  Level FlightAware ADS-B
Fri 05:07:14 PM 36.5385 -85.0685 67° East 520 598 39,000  Level FlightAware ADS-B
Fri 05:08:23 PM 36.6059 -84.8680 68° East 520 598 39,000  Level FlightAware ADS-B
Fri 05:09:02 PM 36.6415 -84.7610 67° East 525 604 39,000  Level FlightAware ADS-B (KMDQ)
Fri 05:10:22 PM 36.7160 -84.5369 68° East 520 598 39,000  Level FlightAware ADS-B
Fri 05:11:23 PM 36.7714 -84.3680 68° East 519 597 39,000  Level FlightAware ADS-B
Fri 05:12:23 PM 36.8219 -84.2139 68° East 518 596 39,000  Level FlightAware ADS-B
Fri 05:13:23 PM 36.8542 -84.1153 68° East 516 594 39,000  Level FlightAware ADS-B
Fri 05:14:52 PM 36.9503 -83.8183 68° East 517 595 39,000  Level Indianapolis Center
Fri 05:15:54 PM 37.0039 -83.6522 68° East 515 593 39,000  Level Indianapolis Center
Fri 05:16:56 PM 37.0661 -83.4594 68° East 515 593 39,000  Level Indianapolis Center
Fri 05:17:58 PM 37.1186 -83.2908 69° East 514 592 39,000  Level Indianapolis Center
Fri 05:19:00 PM 37.1719 -83.1236 68° East 514 592 39,000  Level Indianapolis Center
Fri 05:20:02 PM 37.2250 -82.9558 68° East 514 592 39,000  Level Indianapolis Center
Fri 05:21:04 PM 37.2775 -82.7894 68° East 512 589 39,000  Level Indianapolis Center
Fri 05:22:06 PM 37.3286 -82.6239 69° East 510 587 39,000  Level Indianapolis Center
Fri 05:23:08 PM 37.3794 -82.4600 69° East 505 581 39,000  Level Indianapolis Center
Fri 05:24:10 PM 37.4381 -82.2678 69° East 504 580 39,000  Level Indianapolis Center
Fri 05:25:12 PM 37.4869 -82.1033 69° East 503 579 39,000  Level Indianapolis Center
Fri 05:26:15 PM 37.5375 -81.9386 69° East 503 579 39,000  Level Indianapolis Center
Fri 05:27:17 PM 37.5872 -81.7733 69° East 503 579 39,000  Level Indianapolis Center
Fri 05:28:19 PM 37.6369 -81.6089 69° East 503 579 39,000  Level Indianapolis Center
Fri 05:29:21 PM 37.6861 -81.4417 70° East 503 579 39,000  Level Indianapolis Center
Fri 05:30:23 PM 37.7422 -81.2519 69° East 500 575 39,000  Level Indianapolis Center
Fri 05:31:25 PM 37.7900 -81.0919 69° East 499 574 39,000  Level Indianapolis Center
Fri 05:32:27 PM 37.8447 -80.9386 66° East 495 570 39,000  Level Indianapolis Center
Fri 05:33:29 PM 37.9025 -80.7781 65° Northeast 495 570 39,000  Level Indianapolis Center
Fri 05:34:31 PM 37.9586 -80.6172 66° East 497 572 39,000  Level Indianapolis Center
Fri 05:35:10 PM 38.0064 -80.4911 64° Northeast 493 567 39,000  Level Washington Center
Fri 05:36:11 PM 38.0581 -80.3467 66° East 493 567 39,000  Level Washington Center
Fri 05:37:09 PM 38.1144 -80.1842 66° East 493 567 39,000  Level Washington Center
Fri 05:38:09 PM 38.1728 -80.0211 65° Northeast 493 567 39,000 -50 Level Washington Center
Fri 05:39:10 PM 38.2308 -79.8633 65° Northeast 493 567 38,900 -1,041 Descending Washington Center
Fri 05:40:10 PM 38.2864 -79.7053 66° East 493 567 36,900 -2,678 Descending Washington Center
Fri 05:41:11 PM 38.3486 -79.5258 66° East 493 567 33,500 -3,277 Descending Washington Center
Fri 05:42:09 PM 38.4039 -79.3647 66° East 493 567 30,400 -2,874 Descending Washington Center
Fri 05:43:10 PM 38.4467 -79.1919 72° East 493 567 27,800 -2,182 Descending Washington Center
Fri 05:44:10 PM 38.4767 -79.0208 77° East 498 573 26,000 -1,000 Descending Washington Center
Fri 05:45:10 PM 38.5003 -78.8469 80° East 493 567 25,800 -1,339 Descending Washington Center
Fri 05:46:11 PM 38.5256 -78.6861 79° East 483 556 23,300 -1,664 Descending Washington Center
Fri 05:47:09 PM 38.5525 -78.5253 78° East 469 540 22,500 -1,462 Descending Washington Center
Fri 05:48:10 PM 38.5769 -78.3722 78° East 455 524 20,400 -2,066 Descending Washington Center
Fri 05:49:11 PM 38.6031 -78.2269 77° East 429 494 18,300 -1,983 Descending Washington Center
Fri 05:50:11 PM 38.6456 -78.0983 67° East 400 460 16,400 -1,983 Descending Washington Center
Fri 05:51:09 PM 38.6856 -77.9747 67° East 388 447 14,400 -1,664 Descending Washington Center
Fri 05:52:10 PM 38.7233 -77.8561 68° East 368 423 13,100 -1,140 Descending Washington Center
Fri 05:53:10 PM 38.7750 -77.7644 54° Northeast 335 386 12,100 -1,140 Descending Washington Center
Fri 05:54:11 PM 38.8264 -77.6808 52° Northeast 315 362 10,800 -1,118 Descending Washington Center
Fri 05:59:31 PM 38.8641 -77.5822 120° Southeast 283 326 5,000 -894 Descending FlightAware ADS-B
Fri 06:01:54 PM 38.6397 -77.1055 164° South 216 249 3,900 -564 Descending FlightAware ADS-B
Fri 06:02:53 PM 38.6256 -77.0386 77° East 213 245 3,100 -678 Descending FlightAware ADS-B
Fri 06:03:49 PM 38.6437 -77.0040 337° Northwest 174 200 2,600 -500 Descending FlightAware ADS-B
Fri 06:04:53 PM 38.7044 -77.0232 355° North 177 204 2,100 -528 Descending FlightAware ADS-B
Fri 06:05:54 PM 38.7546 -77.0304 334° Northwest 168 193 1,500 -650 Descending FlightAware ADS-B
Fri 06:06:53 PM 38.7975 -77.0321 355° North 139 160 800 -700 Descending FlightAware ADS-B
Fri 06:07:54 PM 38.8339 -77.0360 356° North 129 148 100 -689 Descending FlightAware ADS-B

Login

Don't have an account? Register now (free) for customized features, flight alerts, and more!